AirNav   ProFlight Series 2 Aviation Headset
 
 686 users online  

86AK Hoppe's Seaplane Base
Big Lake, Alaska, USA

GOING TO BIG LAKE?


FAA INFORMATION EFFECTIVE 18 JUNE 2020

Location

FAA Identifier: 86AK
Lat/Long: 61-33-05.1500N 149-56-44.7000W
61-33.085833N 149-56.745000W
61.5514306,-149.9457500
(estimated)
Elevation: 180 ft. / 55 m (estimated)
From city: 3 miles E of BIG LAKE, AK
Time zone: UTC -8 (UTC -9 during Standard Time)
Zip code: 99623

Seaplane Base Operations

Seaplane Base use: Private use. Permission required prior to landing
Activation date: 05/2007
Control tower: no
ARTCC: ANCHORAGE CENTER
FSS: KENAI FLIGHT SERVICE STATION [907-283-7211]
Attendance: UNATNDD
Segmented circle: no

Seaplane Base Communications

CTAF: 122.8
WX AWOS-3P at IYS (12 nm E): 135.25 (907-373-3801)
WX AWOS-3P at BCV (15 nm SE): 135.55 (907-688-0826)
WX ASOS at FRN (19 nm SE): 134.25

Nearby radio navigation aids

VOR radial/distance  VOR name  Freq  Var
BGQr132/1.2BIG LAKE VORTAC112.5019E
TEDr343/23.0ANCHORAGE VOR/DME113.1518E

 
NDB name  Hdg/Dist  Freq  Var  ID
CAMPBELL LAKE351/23.033816ECMQ -.-. -- --.-

Seaplane Base Services

Runway Information

Runway 18W/36W

Dimensions: 1150 x 200 ft. / 351 x 61 m
Surface: water
RUNWAY 18W  RUNWAY 36W
Traffic pattern: leftleft

Seaplane Base Ownership and Management from official FAA records

Ownership: Privately-owned
Owner: GREG M. HOPPE
P. O. BOX 520636
BIG LAKE, AK 99652
Phone 907-892-7169
Manager: GREG M. HOPPE
P. O. BOX 520636
BIG LAKE, AK 99652
Phone 907-892-7169

Seaplane Base Operational Statistics

Aircraft based on the field: 1
Single engine airplanes: 1
    

Additional Remarks

ALL OPS MUST USE CTAF.

Instrument Procedures

There are no published instrument procedures at 86AK.

Some nearby airports with instrument procedures:

PAGQ - Big Lake Airport (4 nm E)
PAWS - Wasilla Airport (12 nm E)
PAUO - Willow Airport (13 nm N)
PAED - Elmendorf Air Force Base (18 nm S)
PAFR - Bryant Army Airfield Heliport (19 nm SE)
 
Loc | Ops | Rwys | IFR | FBO | Links
Com | Nav | Svcs | Stats | Notes

Crowley
 
Area around 86AK (Hoppe's Seaplane Base)
 
Road maps at: MapQuest Bing Google
 
Aerial photo
No photo
 
Sectional chart

 
Airport distance calculator
Flying to Hoppe's Seaplane Base? Find the distance to fly.

From to 86AK

Sunrise and sunset
Times for 11-Jul-2020
 Local
(UTC-8)
 Zulu
(UTC)
Morning civil twilight02:5310:53
Sunrise04:4312:43
Sunset23:2807:28
Evening civil twilight01:1809:18

Current date and time
Zulu (UTC)  11-Jul-2020 12:52:44
Local (UTC-8)  11-Jul-2020 04:52:44
 
METAR
PABV 
15nm SE 
111156Z AUTO 06004KT 10SM BKN050 OVC070 13/12 A2977 RMK AO2 RAE47 SLP087 P0001 60001 70021 T01280122 10156 20122 50004
PAED 
19nm S 
111156Z 06004KT 10SM BKN040 14/12 A2975 RMK AO2A SLP069 T01400115 10181 20140 50002 $
PAFR 
19nm SE 
111158Z AUTO 00000KT 10SM BKN043 13/12 A2973 RMK AO2 SLP072 70003 T01270115 10155 20121 50001 $
PAMR 
20nm S 
111153Z 07004KT 10SM FEW041 BKN065 15/10 A2975 RMK AO2 SLP074 T01500100 10183 20150 50002
PALH 
22nm S 
111153Z 00000KT 10SM SCT047 BKN055 14/12 A2976 RMK AO2 SLP078 T01440117 10183 20144 50001
PANC 
23nm S 
111153Z 15007KT 060V170 10SM BKN038 OVC055 14/11 A2975 RMK AO2 SLP075 T01440111 10183 20144 50002
TAF
PAED 
19nm S 
111000Z 1110/1216 VRB05KT 9999 FEW010 BKN030 QNH2972INS BECMG 1119/1120 24009KT 9999 VCSH BKN050 QNH2970INS BECMG 1201/1202 25009KT 8000 -SHRA BKN040 QNH2970INS BECMG 1207/1208 VRB04KT 9999 VCSH BKN040 QNH2972INS TX20/1202Z TN13/1113Z
PANC 
23nm S 
111133Z 1112/1218 18004KT P6SM VCSH BKN050 BKN110 TEMPO 1112/1116 SCT050 BKN110 FM112100 17009KT P6SM VCSH BKN070 FM120300 17015G22KT P6SM -SHRA SCT035 OVC050
NOTAMs
Click for the latest NOTAMs
NOTAMs are issued by the DoD/FAA and will open in a separate window not controlled by AirNav.

 

 
 

Would you like to see your business listed on this page?

 If your business provides an interesting product or service to pilots, flight crews, aircraft, or users of the Hoppe's Seaplane Base, you should consider listing it here.  To start the listing process, click on the button below
 
Add a business
 

Other Pages about Hoppe's Seaplane Base

Update a link
 
Copyright © AirNav, LLC. All rights reserved. Privacy Policy  Contact